Time;durP1;ratioP1;P1;durP2;ratioP2;P2;SDS_P1;SDS_P2;PMS_P1;PMS_P2;Temp;Humidity;BMP_temperature;BMP_pressure;BME280_temperature;BME280_humidity;BME280_pressure;Samples;Min_cycle;Max_cycle;Signal;HPM_P1;HPM_P2
2023/01/21 00:02:10;;;;;;;9.90;5.10;;;;;;;5.34;83.16;98359.88;105627;1258;61162;-23
2023/01/21 00:04:38;;;;;;;9.90;4.80;;;;;;;5.12;83.64;98367.10;105653;1253;61326;-23
2023/01/21 00:07:05;;;;;;;11.00;5.90;;;;;;;5.06;84.50;98368.81;105639;1253;75170;-23
2023/01/21 00:09:33;;;;;;;10.20;6.30;;;;;;;5.48;83.39;98367.14;105621;1260;75859;-23
2023/01/21 00:12:02;;;;;;;11.20;5.70;;;;;;;5.51;82.42;98364.98;105498;1258;75251;-23
2023/01/21 00:14:30;;;;;;;9.40;6.30;;;;;;;5.37;82.54;98365.34;105547;1256;62902;-23
2023/01/21 00:16:57;;;;;;;15.30;7.50;;;;;;;5.15;83.04;98368.06;105541;1253;61733;-23
2023/01/21 00:19:24;;;;;;;12.60;7.00;;;;;;;5.24;83.33;98371.39;105506;1253;75458;-24
2023/01/21 00:21:51;;;;;;;12.10;5.30;;;;;;;5.48;82.51;98362.10;105633;1260;75574;-24
2023/01/21 00:24:21;;;;;;;10.90;5.60;;;;;;;5.40;82.11;98358.39;105686;1254;75245;-23
2023/01/21 00:26:48;;;;;;;8.60;5.20;;;;;;;5.20;82.64;98365.27;105590;1253;62557;-23
2023/01/21 00:29:15;;;;;;;13.30;7.00;;;;;;;5.06;83.21;98367.80;105374;1253;61220;-23
2023/01/21 00:31:42;;;;;;;11.00;7.10;;;;;;;5.43;82.82;98366.29;105566;1256;75306;-23
2023/01/21 00:34:10;;;;;;;12.10;7.10;;;;;;;5.60;81.59;98367.80;105416;1258;76501;-23
2023/01/21 00:36:37;;;;;;;8.30;5.50;;;;;;;5.45;81.54;98376.30;105670;1256;74996;-24
2023/01/21 00:39:04;;;;;;;13.80;7.90;;;;;;;5.20;82.01;98375.80;105656;1254;62850;-24
2023/01/21 00:41:31;;;;;;;13.00;7.30;;;;;;;4.94;82.89;98380.16;105623;1258;62540;-24
2023/01/21 00:43:57;;;;;;;10.00;5.50;;;;;;;5.14;83.41;98380.69;105585;1253;74058;-24
2023/01/21 00:46:25;;;;;;;14.70;7.80;;;;;;;5.41;82.34;98384.16;105664;1253;75770;-24
2023/01/21 00:48:54;;;;;;;11.70;6.10;;;;;;;5.32;82.07;98383.20;105669;1258;75222;-24
2023/01/21 00:51:22;;;;;;;10.00;5.70;;;;;;;5.09;82.48;98388.45;105672;1258;61232;-24
2023/01/21 00:53:49;;;;;;;9.40;5.70;;;;;;;4.84;82.81;98384.63;105686;1253;61479;-24
2023/01/21 00:56:16;;;;;;;15.80;7.10;;;;;;;4.81;83.72;98389.29;105613;1256;75090;-24
2023/01/21 00:58:43;;;;;;;15.90;7.10;;;;;;;5.25;82.92;98387.83;105721;1254;76557;-24
2023/01/21 01:01:13;;;;;;;13.90;8.30;;;;;;;5.33;82.08;98387.61;105535;1258;73779;-24
2023/01/21 01:03:40;;;;;;;15.70;7.50;;;;;;;5.16;82.23;98388.97;105526;1256;62906;-24
2023/01/21 01:06:09;;;;;;;13.70;7.50;;;;;;;4.91;82.65;98392.77;105571;1253;61704;-24
2023/01/21 01:08:36;;;;;;;10.80;6.00;;;;;;;4.65;83.23;98391.20;105673;1253;75234;-24
2023/01/21 01:11:03;;;;;;;14.40;7.10;;;;;;;4.90;83.77;98394.54;105603;1253;75872;-24
2023/01/21 01:13:31;;;;;;;12.50;7.60;;;;;;;5.23;82.63;98394.39;105581;1257;75406;-25
2023/01/21 01:15:59;;;;;;;13.10;7.60;;;;;;;5.15;82.04;98389.06;105491;1254;62586;-24
2023/01/21 01:18:26;;;;;;;12.30;5.90;;;;;;;4.92;82.61;98386.65;105546;1253;61713;-24
2023/01/21 01:20:53;;;;;;;4.80;3.70;;;;;;;4.64;83.33;98383.08;105533;1253;74651;-24
2023/01/21 01:23:20;;;;;;;12.40;7.20;;;;;;;4.62;84.41;98385.27;105515;1253;76831;-24
2023/01/21 01:26:00;;;;;;;14.40;7.70;;;;;;;4.95;83.28;98382.31;105516;1256;75188;-24
2023/01/21 01:28:27;;;;;;;11.50;6.70;;;;;;;4.95;82.64;98383.54;105496;1256;62367;-24
2023/01/21 01:30:54;;;;;;;12.90;8.40;;;;;;;4.75;82.82;98390.23;105433;1255;62785;-24
2023/01/21 01:33:22;;;;;;;7.50;4.80;;;;;;;4.50;83.61;98388.25;105679;1258;75126;-24
2023/01/21 01:35:49;;;;;;;10.60;6.40;;;;;;;4.55;84.38;98386.75;105588;1258;76799;-23
2023/01/21 01:38:19;;;;;;;8.60;5.50;;;;;;;4.86;83.21;98388.95;105647;1255;75069;-23
2023/01/21 01:40:47;;;;;;;15.10;6.60;;;;;;;4.84;82.59;98393.23;105649;1256;62868;-25
2023/01/21 01:43:24;;;;;;;13.30;6.60;;;;;;;4.60;83.08;98394.67;105365;1263;62399;-24
2023/01/21 01:45:52;;;;;;;10.10;6.20;;;;;;;4.31;83.92;98391.42;105612;1255;75535;-24
2023/01/21 01:48:20;;;;;;;11.30;5.90;;;;;;;4.42;84.48;98386.05;105652;1258;75685;-24
2023/01/21 01:50:48;;;;;;;13.20;6.90;;;;;;;4.76;83.16;98387.54;105633;1256;74860;-24
2023/01/21 01:53:15;;;;;;;9.60;5.70;;;;;;;4.73;82.53;98384.35;105590;1254;62017;-24
2023/01/21 01:55:42;;;;;;;17.80;7.70;;;;;;;4.54;82.90;98385.95;105596;1260;62933;-23
2023/01/21 01:58:11;;;;;;;17.00;8.50;;;;;;;4.27;83.38;98389.08;105577;1254;75986;-24
2023/01/21 02:00:38;;;;;;;11.70;6.40;;;;;;;4.14;84.38;98386.33;105456;1254;75896;-24
2023/01/21 02:05:51;;;;;;;16.50;8.80;;;;;;;4.54;82.72;98387.65;105453;1255;62896;-24
2023/01/21 02:08:18;;;;;;;14.40;7.90;;;;;;;4.35;82.95;98390.12;105580;1256;61649;-24
2023/01/21 02:10:45;;;;;;;15.40;8.70;;;;;;;4.11;83.43;98388.24;105377;1261;75200;-24
2023/01/21 02:13:12;;;;;;;12.70;7.60;;;;;;;4.03;84.07;98388.91;105600;1256;76783;-24
2023/01/21 02:16:00;;;;;;;15.40;7.90;;;;;;;4.45;83.39;98392.39;105409;1258;74191;-24
2023/01/21 02:18:48;;;;;;;18.40;9.10;;;;;;;4.53;82.21;98393.92;105316;1256;62764;-24
2023/01/21 02:21:37;;;;;;;20.20;9.80;;;;;;;4.29;82.47;98400.33;105358;1258;63003;-24
2023/01/21 02:24:49;;;;;;;16.50;8.30;;;;;;;3.97;83.43;98399.45;105575;1258;75350;-24
2023/01/21 02:27:24;;;;;;;9.50;5.10;;;;;;;4.04;84.27;98401.59;105471;1260;76180;-24
2023/01/21 02:29:57;;;;;;;8.80;5.50;;;;;;;4.33;82.89;98393.15;105317;1256;75233;-24
2023/01/21 02:32:32;;;;;;;17.90;10.00;;;;;;;4.25;82.67;98396.27;105559;1256;61528;-24
2023/01/21 02:35:03;;;;;;;14.40;8.00;;;;;;;3.99;83.09;98400.34;105628;1254;61449;-24
2023/01/21 02:37:47;;;;;;;18.80;9.10;;;;;;;3.77;83.71;98393.36;105482;1254;74901;-24
2023/01/21 02:40:23;;;;;;;10.10;5.90;;;;;;;4.04;83.68;98408.60;105497;1256;75650;-24
2023/01/21 02:42:58;;;;;;;18.70;10.70;;;;;;;4.38;82.48;98396.81;105631;1256;72856;-23
2023/01/21 02:45:43;;;;;;;17.30;6.90;;;;;;;4.24;81.84;98404.23;105604;1261;61807;-24
2023/01/21 02:48:16;;;;;;;14.40;8.20;;;;;;;3.98;82.38;98398.91;105600;1255;61443;-24
2023/01/21 02:50:50;;;;;;;16.10;9.40;;;;;;;3.68;83.16;98398.19;105652;1254;76530;-24
2023/01/21 02:53:27;;;;;;;15.00;7.20;;;;;;;3.82;83.72;98410.02;105674;1254;75537;-24
2023/01/21 02:55:55;;;;;;;14.60;7.80;;;;;;;4.11;82.57;98398.58;105497;1256;75202;-24
2023/01/21 02:58:31;;;;;;;19.70;10.80;;;;;;;4.01;82.30;98402.64;105346;1256;62644;-24
2023/01/21 03:01:23;;;;;;;22.40;10.90;;;;;;;3.81;82.75;98406.83;105488;1254;62907;-24
2023/01/21 03:04:02;;;;;;;8.40;5.40;;;;;;;3.52;83.35;98409.34;105376;1256;76930;-24
2023/01/21 03:06:47;;;;;;;12.60;7.20;;;;;;;3.75;83.62;98405.98;105456;1255;75571;-23
2023/01/21 03:09:24;;;;;;;16.20;8.70;;;;;;;4.15;82.27;98404.32;105511;1256;75293;-23
2023/01/21 03:12:16;;;;;;;20.40;10.00;;;;;;;4.07;81.57;98402.23;105149;1254;61665;-23
2023/01/21 03:17:43;;;;;;;19.60;10.20;;;;;;;3.49;83.21;98398.86;105494;1258;75052;-24
2023/01/21 03:20:22;;;;;;;20.80;9.60;;;;;;;3.63;83.64;98388.55;105632;1255;76870;-24
2023/01/21 03:22:49;;;;;;;22.20;10.60;;;;;;;3.98;82.23;98393.88;105583;1256;74171;-24
2023/01/21 03:25:16;;;;;;;20.50;10.50;;;;;;;3.92;81.99;98390.81;105586;1261;62885;-23
2023/01/21 03:27:43;;;;;;;18.10;9.90;;;;;;;3.68;82.19;98394.75;105491;1260;62786;-24
2023/01/21 03:30:15;;;;;;;19.20;9.40;;;;;;;3.42;83.01;98397.95;105543;1260;75980;-24
2023/01/21 03:32:45;;;;;;;18.30;8.60;;;;;;;3.27;83.82;98388.52;105498;1256;75880;-24
2023/01/21 03:35:15;;;;;;;18.00;9.70;;;;;;;3.59;83.48;98386.77;105639;1261;75166;-24
2023/01/21 03:37:45;;;;;;;20.10;9.80;;;;;;;3.79;82.39;98378.95;105652;1261;63078;-24
2023/01/21 03:40:20;;;;;;;15.50;7.80;;;;;;;3.71;82.16;98374.31;105583;1254;61727;-22
2023/01/21 03:42:49;;;;;;;18.70;8.70;;;;;;;3.44;82.78;98386.98;105457;1256;76073;-22
2023/01/21 03:45:23;;;;;;;17.90;8.30;;;;;;;3.31;83.56;98387.62;105623;1259;75605;-22
2023/01/21 03:47:53;;;;;;;16.90;8.50;;;;;;;3.62;82.98;98375.20;105501;1256;75192;-23
2023/01/21 03:50:26;;;;;;;16.40;8.20;;;;;;;3.72;82.09;98371.86;105237;1254;62572;-22
2023/01/21 03:52:53;;;;;;;15.70;9.50;;;;;;;3.51;82.40;98370.23;105254;1256;61759;-22
2023/01/21 03:55:20;;;;;;;15.60;8.80;;;;;;;3.26;83.04;98367.70;105414;1256;76318;-22
2023/01/21 03:57:47;;;;;;;11.10;7.20;;;;;;;3.33;83.65;98369.65;105391;1256;76829;-22
2023/01/21 04:00:15;;;;;;;22.10;10.10;;;;;;;3.62;82.60;98366.84;105433;1259;75072;-23
2023/01/21 04:02:42;;;;;;;15.90;7.20;;;;;;;3.67;82.06;98361.19;105516;1256;61806;-22
2023/01/21 04:05:09;;;;;;;33.90;16.00;;;;;;;3.50;82.31;98364.86;105324;1254;62098;-22
2023/01/21 04:07:36;;;;;;;16.00;10.10;;;;;;;3.20;83.06;98374.55;105359;1256;76267;-23
2023/01/21 04:10:04;;;;;;;28.30;11.80;;;;;;;3.13;84.31;98370.91;105564;1258;76087;-23
2023/01/21 04:12:32;;;;;;;19.70;9.80;;;;;;;3.49;83.50;98371.09;105611;1259;73447;-22
2023/01/21 04:14:59;;;;;;;23.50;11.70;;;;;;;3.58;82.36;98367.58;105668;1256;61823;-23
2023/01/21 04:17:27;;;;;;;12.50;7.10;;;;;;;3.40;82.76;98376.11;105540;1254;61105;-23
2023/01/21 04:19:54;;;;;;;14.40;8.10;;;;;;;3.12;83.41;98372.98;105405;1256;75037;-23
2023/01/21 04:22:21;;;;;;;18.50;9.00;;;;;;;3.22;83.83;98373.27;105592;1256;76839;-22
2023/01/21 04:24:48;;;;;;;25.10;12.20;;;;;;;3.36;83.21;98370.13;105558;1256;75498;-23
2023/01/21 04:27:15;;;;;;;20.60;11.70;;;;;;;3.29;82.87;98376.77;105333;1261;63094;-24
2023/01/21 04:29:42;;;;;;;28.70;13.80;;;;;;;3.08;83.36;98368.60;105618;1258;62858;-23
2023/01/21 04:32:09;;;;;;;20.30;10.80;;;;;;;3.05;84.01;98372.02;105498;1260;75196;-23
2023/01/21 04:34:36;;;;;;;21.10;12.00;;;;;;;3.46;82.91;98372.96;105624;1255;76739;-23
2023/01/21 04:37:03;;;;;;;18.60;8.30;;;;;;;3.47;82.14;98367.77;105468;1258;74939;-23
2023/01/21 04:39:30;;;;;;;18.80;11.40;;;;;;;3.24;82.49;98378.08;105511;1256;62789;-22
2023/01/21 04:41:57;;;;;;;17.40;9.30;;;;;;;3.03;83.24;98386.38;105500;1254;62648;-23
2023/01/21 04:44:24;;;;;;;17.40;8.10;;;;;;;2.94;83.92;98397.06;105275;1258;76245;-23
2023/01/21 04:46:51;;;;;;;21.60;10.00;;;;;;;3.44;83.00;98403.46;105496;1258;76771;-23
2023/01/21 04:49:18;;;;;;;23.80;9.80;;;;;;;3.64;81.75;98406.54;105629;1256;73371;-22
2023/01/21 04:51:45;;;;;;;15.60;7.40;;;;;;;3.45;81.58;98415.21;105525;1258;63123;-22
2023/01/21 04:54:12;;;;;;;24.50;11.00;;;;;;;3.23;82.31;98415.56;105340;1258;62822;-23
2023/01/21 04:56:39;;;;;;;16.70;10.40;;;;;;;3.00;83.03;98420.70;105512;1258;75868;-23
2023/01/21 04:59:06;;;;;;;17.80;9.80;;;;;;;3.12;83.36;98424.77;105572;1256;75656;-23
2023/01/21 05:01:33;;;;;;;22.50;11.70;;;;;;;3.38;82.55;98427.35;105598;1256;74873;-23
2023/01/21 05:04:00;;;;;;;20.20;11.20;;;;;;;3.28;81.92;98433.42;105520;1258;61856;-23
2023/01/21 05:06:27;;;;;;;19.10;10.70;;;;;;;3.04;82.64;98430.73;105493;1260;61740;-23
2023/01/21 05:08:54;;;;;;;21.60;9.80;;;;;;;2.86;83.50;98422.09;105485;1260;74241;-23
2023/01/21 05:11:21;;;;;;;18.70;9.80;;;;;;;3.11;83.36;98427.30;105447;1256;76739;-23
2023/01/21 05:13:48;;;;;;;14.40;8.20;;;;;;;3.38;82.33;98430.93;105332;1260;74221;-23
2023/01/21 05:16:14;;;;;;;18.00;8.70;;;;;;;3.32;81.82;98425.14;105512;1256;61588;-23
2023/01/21 05:18:41;;;;;;;26.00;11.20;;;;;;;3.08;82.26;98431.53;105564;1260;61492;-22
2023/01/21 05:21:12;;;;;;;12.80;9.20;;;;;;;2.78;83.25;98432.79;105588;1258;74981;-23
2023/01/21 05:23:39;;;;;;;27.10;12.90;;;;;;;2.99;83.14;98437.89;105535;1258;76164;-23
2023/01/21 05:26:06;;;;;;;28.10;13.80;;;;;;;3.26;82.05;98440.27;105569;1254;75204;-23
2023/01/21 05:28:32;;;;;;;22.30;10.20;;;;;;;3.18;81.71;98439.36;105564;1256;62020;-23
2023/01/21 05:31:00;;;;;;;21.90;9.70;;;;;;;2.98;82.21;98442.25;105491;1259;62814;-23
2023/01/21 05:33:29;;;;;;;17.60;8.60;;;;;;;2.72;83.10;98449.27;105517;1258;75487;-23
2023/01/21 05:35:56;;;;;;;22.70;11.10;;;;;;;2.99;83.14;98453.71;105538;1256;75715;-23
2023/01/21 05:38:23;;;;;;;18.90;8.70;;;;;;;3.28;82.00;98447.34;105191;1254;72761;-23
2023/01/21 05:40:55;;;;;;;23.60;11.40;;;;;;;3.14;81.49;98440.28;105550;1256;62833;-23
2023/01/21 05:43:23;;;;;;;20.10;11.00;;;;;;;2.90;81.78;98443.76;105509;1256;61723;-23
2023/01/21 05:45:50;;;;;;;19.80;11.30;;;;;;;2.68;82.90;98452.41;105633;1258;75225;-23
2023/01/21 05:48:17;;;;;;;21.90;9.60;;;;;;;2.84;83.09;98458.20;105631;1258;75542;-23
2023/01/21 05:50:44;;;;;;;27.20;12.60;;;;;;;3.20;81.97;98462.39;105416;1256;75140;-23
2023/01/21 05:53:11;;;;;;;24.50;12.90;;;;;;;3.15;81.35;98464.08;105626;1259;62846;-23
2023/01/21 05:55:38;;;;;;;19.40;12.40;;;;;;;2.88;81.93;98470.43;105317;1256;61790;-23
2023/01/21 05:58:05;;;;;;;28.30;13.00;;;;;;;2.63;82.76;98470.53;105508;1261;75719;-23
2023/01/21 06:00:32;;;;;;;25.40;11.80;;;;;;;2.76;82.78;98467.89;105641;1258;75148;-23
2023/01/21 06:03:03;;;;;;;27.80;14.40;;;;;;;2.96;82.11;98469.80;105575;1258;74986;-23
2023/01/21 06:05:29;;;;;;;23.50;12.10;;;;;;;2.85;81.89;98469.11;105590;1256;63041;-23
2023/01/21 06:07:56;;;;;;;35.60;15.40;;;;;;;2.64;82.59;98470.13;105537;1258;61670;-23
2023/01/21 06:10:23;;;;;;;24.10;12.80;;;;;;;2.52;83.43;98464.63;105653;1255;76030;-23
2023/01/21 06:12:50;;;;;;;27.20;12.20;;;;;;;2.92;82.69;98467.96;105574;1258;76626;-23
2023/01/21 06:15:18;;;;;;;26.70;13.40;;;;;;;3.08;81.64;98469.80;105567;1254;75389;-23
2023/01/21 06:17:45;;;;;;;24.00;13.80;;;;;;;2.95;81.65;98478.48;105509;1256;62586;-24
2023/01/21 06:20:13;;;;;;;22.50;12.10;;;;;;;2.73;82.13;98482.13;105333;1258;62891;-23
2023/01/21 06:22:40;;;;;;;16.10;8.50;;;;;;;2.60;82.99;98493.34;105337;1260;75594;-23
2023/01/21 06:25:08;;;;;;;23.40;11.20;;;;;;;3.02;82.69;98500.02;105449;1259;75083;-23
2023/01/21 06:27:37;;;;;;;16.10;8.10;;;;;;;3.16;81.38;98502.27;105388;1256;74899;-23
2023/01/21 06:30:08;;;;;;;29.00;14.00;;;;;;;3.00;81.49;98505.95;105664;1257;62872;-23
2023/01/21 06:32:35;;;;;;;18.50;9.00;;;;;;;2.76;82.15;98512.48;105477;1256;61648;-24
2023/01/21 06:35:03;;;;;;;23.70;11.10;;;;;;;2.58;82.88;98516.27;105296;1258;76328;-23
2023/01/21 06:37:30;;;;;;;17.20;9.40;;;;;;;2.85;82.66;98519.52;105234;1259;77043;-23
2023/01/21 06:39:57;;;;;;;22.00;11.80;;;;;;;3.00;81.87;98529.26;105516;1254;75100;-23
2023/01/21 06:42:24;;;;;;;26.20;14.60;;;;;;;2.87;81.80;98546.85;105496;1253;61529;-23
2023/01/21 06:44:51;;;;;;;28.50;14.70;;;;;;;2.58;82.45;98547.27;105648;1254;62499;-24
2023/01/21 06:47:17;;;;;;;32.10;16.10;;;;;;;2.46;83.27;98552.40;105470;1259;75216;-23
2023/01/21 06:49:44;;;;;;;25.30;12.50;;;;;;;2.75;82.82;98566.52;105525;1257;76562;-23
2023/01/21 06:52:11;;;;;;;24.90;12.00;;;;;;;2.83;82.10;98569.49;105293;1253;74240;-24
2023/01/21 06:54:38;;;;;;;29.50;14.00;;;;;;;2.64;82.39;98578.13;105649;1259;61810;-23
2023/01/21 06:57:05;;;;;;;20.50;11.10;;;;;;;2.37;83.12;98596.05;105573;1253;61135;-23
2023/01/21 06:59:32;;;;;;;22.50;11.30;;;;;;;2.37;83.88;98607.71;105555;1259;74484;-24
2023/01/21 07:02:00;;;;;;;32.40;16.50;;;;;;;2.81;83.03;98605.46;105502;1253;75696;-24
2023/01/21 07:04:27;;;;;;;31.00;13.70;;;;;;;2.88;82.21;98608.81;105442;1258;75185;-23
2023/01/21 07:06:54;;;;;;;26.20;12.60;;;;;;;2.73;82.30;98607.13;105325;1253;61871;-23
2023/01/21 07:09:21;;;;;;;27.60;12.30;;;;;;;2.48;82.88;98612.93;105454;1253;61764;-24
2023/01/21 07:11:48;;;;;;;22.80;11.00;;;;;;;2.43;83.63;98614.38;105363;1258;76265;-23
2023/01/21 07:14:15;;;;;;;25.70;13.20;;;;;;;2.92;82.74;98613.23;105483;1254;75691;-24
2023/01/21 07:16:42;;;;;;;17.50;8.90;;;;;;;3.05;81.67;98614.06;105324;1253;75427;-24
2023/01/21 07:19:10;;;;;;;36.00;16.30;;;;;;;2.84;81.56;98602.86;105339;1258;62453;-24
2023/01/21 07:21:40;;;;;;;34.00;15.60;;;;;;;2.58;82.30;98614.29;105579;1254;62833;-24
2023/01/21 07:24:08;;;;;;;31.10;15.70;;;;;;;2.36;83.28;98612.23;105495;1259;75237;-24
2023/01/21 07:26:36;;;;;;;30.50;15.10;;;;;;;2.55;83.09;98615.28;105578;1259;76906;-25
2023/01/21 07:29:04;;;;;;;30.40;11.70;;;;;;;2.64;82.69;98619.44;105415;1256;74205;-24
2023/01/21 07:31:32;;;;;;;28.70;15.00;;;;;;;2.58;82.45;98618.89;105306;1259;61854;-24
2023/01/21 07:33:59;;;;;;;21.30;11.20;;;;;;;2.41;83.07;98621.39;105467;1259;61687;-24
2023/01/21 07:36:27;;;;;;;26.00;13.20;;;;;;;2.57;83.17;98628.35;105333;1258;76357;-24
2023/01/21 07:38:54;;;;;;;32.00;15.30;;;;;;;2.85;82.14;98631.27;105335;1253;75682;-25
2023/01/21 07:41:21;;;;;;;27.50;13.40;;;;;;;2.75;81.80;98622.77;105312;1258;73111;-25
2023/01/21 07:43:49;;;;;;;28.60;14.60;;;;;;;2.52;82.38;98643.20;105339;1258;62610;-24
2023/01/21 07:46:19;;;;;;;33.60;15.20;;;;;;;2.29;83.30;98645.48;105383;1254;61523;-24
2023/01/21 07:48:48;;;;;;;27.10;13.50;;;;;;;2.45;83.75;98651.81;105292;1260;76202;-24
2023/01/21 07:51:15;;;;;;;30.00;14.70;;;;;;;2.73;82.62;98658.52;105252;1255;75860;-24
2023/01/21 07:53:42;;;;;;;26.60;12.90;;;;;;;2.69;82.39;98652.06;105573;1256;73919;-24
2023/01/21 07:56:09;;;;;;;27.50;13.10;;;;;;;2.54;82.86;98663.66;105571;1257;61780;-24
2023/01/21 07:58:36;;;;;;;25.60;12.00;;;;;;;2.38;83.48;98666.60;105520;1258;62541;-24
2023/01/21 08:01:07;;;;;;;33.30;16.30;;;;;;;2.49;83.79;98669.11;105277;1260;76300;-24
2023/01/21 08:03:37;;;;;;;27.20;12.60;;;;;;;2.87;82.66;98655.17;105176;1266;75333;-24
2023/01/21 08:06:05;;;;;;;41.60;18.50;;;;;;;2.87;81.99;98659.49;105243;1261;75198;-24
2023/01/21 08:08:32;;;;;;;32.00;14.50;;;;;;;2.66;82.48;98661.63;105637;1255;62403;-24
2023/01/21 08:10:59;;;;;;;34.20;13.40;;;;;;;2.44;83.19;98668.83;105366;1258;63065;-24
2023/01/21 08:13:26;;;;;;;28.10;15.00;;;;;;;2.55;83.65;98672.53;105486;1259;76305;-24
2023/01/21 08:15:54;;;;;;;34.20;14.10;;;;;;;2.88;82.56;98674.30;105364;1259;75767;-24
2023/01/21 08:18:22;;;;;;;30.00;15.20;;;;;;;2.88;82.09;98676.20;105299;1259;74079;-24
2023/01/21 08:20:54;;;;;;;31.50;14.80;;;;;;;2.67;82.29;98679.94;105566;1259;62871;-24
2023/01/21 08:23:21;;;;;;;34.70;16.00;;;;;;;2.36;83.64;98684.53;105631;1254;61707;-24
2023/01/21 08:25:48;;;;;;;31.40;12.60;;;;;;;2.46;83.98;98698.19;105562;1259;74736;-24
2023/01/21 08:28:15;;;;;;;28.00;13.10;;;;;;;2.67;83.10;98695.17;105599;1268;76852;-24
2023/01/21 08:30:43;;;;;;;26.00;13.00;;;;;;;2.66;82.91;98701.40;105487;1260;75168;-24
2023/01/21 08:33:10;;;;;;;28.50;12.30;;;;;;;2.41;83.44;98701.00;105163;1253;61059;-24
2023/01/21 08:35:37;;;;;;;31.30;13.60;;;;;;;2.35;84.19;98696.36;105498;1259;62476;-24
2023/01/21 08:38:04;;;;;;;38.00;15.20;;;;;;;2.82;83.31;98701.56;105378;1259;74801;-24
2023/01/21 08:40:31;;;;;;;37.50;16.20;;;;;;;3.01;82.09;98697.64;105642;1258;73631;-24
2023/01/21 08:42:59;;;;;;;32.60;14.40;;;;;;;2.88;82.11;98698.64;105701;1259;75024;-24
2023/01/21 08:45:26;;;;;;;27.20;14.20;;;;;;;2.63;82.58;98700.05;105604;1255;61112;-24
2023/01/21 08:47:53;;;;;;;38.30;14.80;;;;;;;2.42;83.43;98698.56;105643;1259;62202;-24
2023/01/21 08:50:21;;;;;;;46.50;19.30;;;;;;;2.74;83.49;98704.92;105673;1259;76245;-24
2023/01/21 08:52:53;;;;;;;36.90;16.10;;;;;;;2.96;82.17;98701.67;105568;1257;75308;-24
2023/01/21 08:55:20;;;;;;;33.60;15.00;;;;;;;2.78;82.10;98699.56;105498;1258;74293;-24
2023/01/21 08:57:52;;;;;;;26.90;12.80;;;;;;;2.56;82.56;98707.77;105246;1258;61771;-24
2023/01/21 09:00:20;;;;;;;30.60;12.80;;;;;;;2.50;83.43;98699.20;105593;1254;61149;-25
2023/01/21 09:02:47;;;;;;;35.10;14.80;;;;;;;3.00;82.78;98690.28;105491;1259;76177;-24
2023/01/21 09:05:17;;;;;;;25.80;11.20;;;;;;;3.26;81.18;98686.95;105360;1255;77182;-24
2023/01/21 09:07:45;;;;;;;22.00;11.80;;;;;;;3.20;81.03;98690.72;105575;1268;75067;-24
2023/01/21 09:10:59;;;;;;;38.10;16.90;;;;;;;2.95;81.35;98691.63;105328;1258;61457;-24
2023/01/21 09:13:05;;;;;;;32.10;14.60;;;;;;;2.66;82.14;98689.40;105474;1259;62567;-24
2023/01/21 09:15:39;;;;;;;27.20;12.30;;;;;;;2.71;82.98;98690.34;105148;1259;76077;-24
2023/01/21 09:18:06;;;;;;;29.00;13.00;;;;;;;3.13;81.98;98693.52;105318;1262;76866;-24
2023/01/21 09:20:33;;;;;;;23.20;10.80;;;;;;;3.15;81.44;98690.17;105322;1258;73993;-24
2023/01/21 09:23:00;;;;;;;29.40;13.80;;;;;;;2.93;81.57;98689.13;105342;1259;61844;-24
2023/01/21 09:25:27;;;;;;;26.00;12.30;;;;;;;2.63;82.32;98683.77;105454;1256;62507;-24
2023/01/21 09:27:54;;;;;;;34.40;12.40;;;;;;;2.45;83.25;98680.27;105358;1261;75244;-24
2023/01/21 09:30:21;;;;;;;20.10;10.60;;;;;;;2.72;83.52;98677.44;105534;1261;76814;-24
2023/01/21 09:32:48;;;;;;;24.10;11.20;;;;;;;3.10;82.58;98696.77;105485;1255;73884;-23
2023/01/21 09:35:15;;;;;;;29.60;13.30;;;;;;;3.07;81.84;98718.74;105330;1260;61880;-24
2023/01/21 09:37:43;;;;;;;23.90;11.90;;;;;;;2.82;82.39;98721.47;105350;1254;62488;-24
2023/01/21 09:40:13;;;;;;;35.20;14.00;;;;;;;2.54;83.27;98721.41;105308;1269;76413;-24
2023/01/21 09:42:41;;;;;;;31.60;13.20;;;;;;;2.47;84.17;98735.14;105314;1262;76802;-24
2023/01/21 09:45:09;;;;;;;21.20;10.50;;;;;;;2.87;83.77;98738.70;105604;1259;74291;-24
2023/01/21 09:47:38;;;;;;;33.40;14.70;;;;;;;2.98;83.02;98737.92;105373;1259;61703;-24
2023/01/21 09:50:09;;;;;;;34.80;16.20;;;;;;;2.83;82.94;98735.48;105267;1262;62883;-24
2023/01/21 09:52:40;;;;;;;23.80;11.30;;;;;;;2.62;83.40;98733.48;105626;1254;75342;-24
2023/01/21 09:55:16;;;;;;;24.30;10.90;;;;;;;2.62;84.02;98733.34;105312;1258;75773;-24
2023/01/21 09:57:53;;;;;;;22.60;10.80;;;;;;;3.09;83.31;98734.04;104098;1258;1816287;-24
2023/01/21 10:00:33;;;;;;;27.50;11.60;;;;;;;3.17;82.30;98735.68;105537;1259;61974;-24
2023/01/21 10:03:15;;;;;;;21.80;10.60;;;;;;;2.96;82.49;98739.03;105692;1256;61449;-24
2023/01/21 10:05:45;;;;;;;18.60;6.50;;;;;;;2.65;83.20;98737.77;105535;1254;73913;-23
2023/01/21 10:08:31;;;;;;;18.00;8.60;;;;;;;2.72;83.91;98737.61;105386;1269;76526;-23
2023/01/21 10:11:20;;;;;;;17.70;8.80;;;;;;;3.17;82.75;98740.13;105334;1260;75187;-23
2023/01/21 10:14:22;;;;;;;17.80;8.90;;;;;;;3.12;81.99;98743.00;105637;1259;62741;-23
2023/01/21 10:16:58;;;;;;;20.90;8.70;;;;;;;2.83;82.67;98744.55;105596;1253;61768;-23
2023/01/21 10:19:32;;;;;;;19.90;8.90;;;;;;;2.53;83.42;98755.05;105684;1259;76321;-23
2023/01/21 10:22:02;;;;;;;22.00;9.60;;;;;;;2.58;84.28;98754.81;105556;1264;76773;-23
2023/01/21 10:24:36;;;;;;;19.70;9.30;;;;;;;3.16;83.66;98757.20;105274;1264;74754;-23
2023/01/21 10:27:03;;;;;;;14.50;7.70;;;;;;;3.35;82.44;98751.64;105233;1255;62546;-23
2023/01/21 10:29:30;;;;;;;16.20;8.30;;;;;;;3.19;81.98;98754.77;105349;1255;61342;-23
2023/01/21 10:32:02;;;;;;;11.40;5.70;;;;;;;2.94;82.44;98755.45;105330;1259;76086;-23
2023/01/21 10:34:30;;;;;;;11.60;5.40;;;;;;;2.67;82.99;98754.31;105336;1260;76575;-23
2023/01/21 10:37:12;;;;;;;15.50;6.70;;;;;;;2.88;83.53;98755.61;105300;1255;72945;-22
2023/01/21 10:39:48;;;;;;;13.60;6.40;;;;;;;3.34;82.36;98746.76;105444;1260;62344;-21
2023/01/21 10:42:18;;;;;;;15.10;7.20;;;;;;;3.38;82.15;98738.77;105351;1259;61695;-22
2023/01/21 10:44:57;;;;;;;13.10;7.30;;;;;;;3.26;82.38;98734.14;105519;1255;76150;-21
2023/01/21 10:47:43;;;;;;;14.30;7.70;;;;;;;3.06;82.63;98736.30;105270;1254;76487;-21
2023/01/21 10:50:26;;;;;;;14.50;5.80;;;;;;;2.80;82.94;98748.65;105436;1254;73473;-21
2023/01/21 10:53:26;;;;;;;13.70;7.10;;;;;;;3.28;82.81;98747.60;105528;1258;62956;-21
2023/01/21 10:56:08;;;;;;;10.10;5.90;;;;;;;3.55;81.18;98757.05;105644;1254;61106;-21
2023/01/21 10:58:51;;;;;;;16.00;8.10;;;;;;;3.37;81.24;98765.46;105617;1258;76043;-21
2023/01/21 11:01:26;;;;;;;11.60;7.00;;;;;;;3.05;81.97;98767.06;105565;1262;76860;-21
2023/01/21 11:03:55;;;;;;;18.50;8.40;;;;;;;2.77;82.81;98769.20;105490;1260;75190;-22
2023/01/21 11:06:22;;;;;;;14.40;6.90;;;;;;;2.57;83.59;98767.17;105616;1260;63683;-21
2023/01/21 11:08:51;;;;;;;16.40;7.90;;;;;;;2.96;83.87;98763.88;105645;1260;62524;-21
2023/01/21 11:11:27;;;;;;;13.30;7.80;;;;;;;3.42;82.26;98762.74;105504;1260;76327;-21
2023/01/21 11:13:54;;;;;;;12.00;6.70;;;;;;;3.45;81.76;98767.61;105641;1254;76842;-21
2023/01/21 11:16:41;;;;;;;14.10;7.90;;;;;;;3.21;81.73;98768.88;105374;1260;74022;-21
2023/01/21 11:19:16;;;;;;;17.40;8.10;;;;;;;2.86;82.28;98769.41;105393;1259;62305;-21
2023/01/21 11:22:05;;;;;;;10.80;6.00;;;;;;;2.64;83.26;98770.08;105491;1255;61456;-21
2023/01/21 11:24:46;;;;;;;11.30;5.10;;;;;;;3.00;83.42;98766.95;105620;1254;76320;-21
2023/01/21 11:27:33;;;;;;;14.70;5.90;;;;;;;3.23;81.78;98771.02;105567;1255;77158;-21
2023/01/21 11:30:01;;;;;;;12.20;5.50;;;;;;;3.14;81.94;98770.31;105532;1261;74612;-21
2023/01/21 11:32:29;;;;;;;14.70;7.90;;;;;;;2.92;82.26;98771.88;105539;1254;61856;-22
2023/01/21 11:35:01;;;;;;;12.20;5.90;;;;;;;2.67;83.08;98776.77;105442;1254;61432;-21
2023/01/21 11:37:29;;;;;;;16.70;7.70;;;;;;;2.65;83.72;98785.27;105344;1261;75191;-21
2023/01/21 11:39:57;;;;;;;12.30;6.80;;;;;;;3.22;83.32;98793.23;105253;1260;75933;-21
2023/01/21 11:42:23;;;;;;;17.30;8.40;;;;;;;3.45;82.10;98788.71;105440;1255;74250;-21